createdAt,value
2018-02-03T00:01:59.315Z,12.60
2018-02-03T00:04:25.422Z,9.90
2018-02-03T00:06:51.589Z,10.73
2018-02-03T00:09:17.818Z,10.03
2018-02-03T00:11:44.002Z,9.03
2018-02-03T00:14:10.248Z,8.93
2018-02-03T00:16:36.455Z,8.10
2018-02-03T00:19:02.727Z,7.30
2018-02-03T00:21:28.868Z,5.97
2018-02-03T00:23:55.081Z,6.33
2018-02-03T00:26:21.241Z,6.63
2018-02-03T00:28:47.453Z,5.90
2018-02-03T00:31:13.594Z,6.30
2018-02-03T00:33:39.935Z,6.50
2018-02-03T00:36:06.062Z,5.43
2018-02-03T00:38:32.318Z,8.87
2018-02-03T00:40:58.483Z,5.97
2018-02-03T00:43:24.630Z,6.00
2018-02-03T00:45:50.834Z,6.10
2018-02-03T00:48:17.039Z,5.53
2018-02-03T00:50:43.208Z,4.90
2018-02-03T00:53:09.371Z,5.10
2018-02-03T00:55:35.530Z,5.37
2018-02-03T00:58:01.647Z,7.07
2018-02-03T01:00:27.869Z,5.30
2018-02-03T01:02:54.021Z,5.47
2018-02-03T01:05:20.146Z,5.37
2018-02-03T01:07:46.300Z,4.00
2018-02-03T01:10:12.500Z,3.63
2018-02-03T01:12:38.669Z,4.43
2018-02-03T01:15:05.658Z,6.50
2018-02-03T01:17:31.827Z,3.70
2018-02-03T01:19:58.059Z,3.77
2018-02-03T01:22:24.232Z,4.80
2018-02-03T01:24:50.392Z,4.20
2018-02-03T01:27:17.127Z,3.47
2018-02-03T01:29:43.326Z,3.33
2018-02-03T01:32:09.477Z,3.20
2018-02-03T01:34:35.654Z,3.23
2018-02-03T01:37:01.793Z,3.47
2018-02-03T01:39:28.005Z,2.87
2018-02-03T01:41:54.159Z,3.10
2018-02-03T01:44:20.299Z,2.97
2018-02-03T01:46:46.524Z,2.83
2018-02-03T01:49:12.757Z,3.10
2018-02-03T01:51:38.975Z,4.83
2018-02-03T01:54:05.111Z,2.40
2018-02-03T01:56:31.290Z,2.97
2018-02-03T01:58:57.597Z,2.53
2018-02-03T02:01:23.730Z,3.20
2018-02-03T02:03:49.870Z,3.63
2018-02-03T02:06:16.024Z,3.27
2018-02-03T02:08:42.174Z,2.33
2018-02-03T02:11:08.434Z,2.77
2018-02-03T02:13:34.609Z,2.60
2018-02-03T02:16:00.829Z,2.93
2018-02-03T02:18:26.985Z,2.50
2018-02-03T02:20:53.173Z,2.37
2018-02-03T02:23:19.303Z,2.83
2018-02-03T02:25:45.488Z,2.73
2018-02-03T02:28:11.643Z,5.60
2018-02-03T02:30:38.030Z,2.57
2018-02-03T02:33:04.230Z,2.77
2018-02-03T02:35:30.420Z,2.57
2018-02-03T02:37:56.663Z,2.30
2018-02-03T02:40:22.895Z,2.67
2018-02-03T02:42:49.118Z,2.83
2018-02-03T02:45:15.373Z,3.30
2018-02-03T02:47:41.534Z,2.70
2018-02-03T02:50:07.716Z,2.80
2018-02-03T02:52:33.978Z,2.80
2018-02-03T02:55:00.103Z,3.23
2018-02-03T02:57:26.255Z,3.07
2018-02-03T02:59:52.458Z,2.90
2018-02-03T03:02:18.688Z,3.20
2018-02-03T03:04:44.828Z,5.03
2018-02-03T03:07:10.995Z,3.87
2018-02-03T03:09:37.180Z,3.70
2018-02-03T03:12:03.352Z,3.47
2018-02-03T03:14:29.520Z,4.53
2018-02-03T03:16:55.659Z,3.60
2018-02-03T03:19:21.828Z,3.50
2018-02-03T03:21:48.055Z,3.93
2018-02-03T03:24:14.239Z,3.87
2018-02-03T03:26:40.360Z,3.20
2018-02-03T03:29:06.504Z,2.87
2018-02-03T03:31:32.698Z,3.17
2018-02-03T03:33:58.893Z,3.60
2018-02-03T03:36:25.034Z,3.50
2018-02-03T03:38:51.242Z,3.83
2018-02-03T03:41:17.352Z,5.83
2018-02-03T03:43:43.735Z,2.97
2018-02-03T03:46:09.880Z,4.00
2018-02-03T03:48:36.052Z,3.77
2018-02-03T03:51:02.214Z,3.57
2018-02-03T03:53:28.368Z,3.63
2018-02-03T03:55:54.493Z,3.80
2018-02-03T03:58:27.629Z,4.57
2018-02-03T04:00:53.776Z,4.17
2018-02-03T04:03:20.009Z,4.67
2018-02-03T04:05:46.735Z,4.17
2018-02-03T04:08:12.883Z,4.60
2018-02-03T04:10:39.088Z,3.73
2018-02-03T04:13:12.135Z,3.37
2018-02-03T04:15:38.279Z,3.40
2018-02-03T04:18:04.448Z,4.20
2018-02-03T04:20:30.665Z,3.60
2018-02-03T04:22:56.930Z,6.90
2018-02-03T04:25:23.055Z,4.50
2018-02-03T04:27:49.181Z,4.00
2018-02-03T04:30:15.417Z,5.07
2018-02-03T04:32:41.554Z,4.63
2018-02-03T04:35:07.691Z,3.90
2018-02-03T04:37:33.861Z,4.13
2018-02-03T04:40:00.075Z,3.87
2018-02-03T04:42:26.343Z,4.03
2018-02-03T04:44:52.576Z,4.37
2018-02-03T04:47:18.706Z,4.63
2018-02-03T04:49:44.904Z,4.33
2018-02-03T04:52:11.036Z,4.30
2018-02-03T04:54:44.131Z,3.73
2018-02-03T04:57:10.282Z,3.90
2018-02-03T04:59:36.440Z,4.80
2018-02-03T05:02:02.568Z,4.67
2018-02-03T05:04:29.558Z,5.03
2018-02-03T05:06:55.666Z,3.50
2018-02-03T05:09:21.811Z,5.10
2018-02-03T05:11:48.053Z,4.60
2018-02-03T05:14:14.232Z,5.23
2018-02-03T05:16:40.406Z,5.30
2018-02-03T05:19:07.646Z,5.20
2018-02-03T05:21:33.792Z,4.87
2018-02-03T05:23:59.979Z,5.67
2018-02-03T05:26:26.204Z,5.67
2018-02-03T05:28:52.343Z,4.97
2018-02-03T05:31:18.557Z,4.97
2018-02-03T05:33:44.700Z,5.97
2018-02-03T05:36:10.833Z,5.87
2018-02-03T05:38:37.795Z,5.27
2018-02-03T05:41:04.080Z,6.33
2018-02-03T05:43:33.230Z,5.57
2018-02-03T05:45:59.493Z,4.83
2018-02-03T05:48:25.806Z,4.90
2018-02-03T05:50:53.010Z,5.13
2018-02-03T05:53:19.302Z,5.60
2018-02-03T05:55:45.493Z,5.23
2018-02-03T05:58:11.621Z,5.27
2018-02-03T06:00:37.792Z,6.50
2018-02-03T06:03:03.969Z,6.37
2018-02-03T06:05:30.141Z,7.37
2018-02-03T06:07:56.697Z,6.70
2018-02-03T06:10:22.873Z,7.17
2018-02-03T06:12:49.000Z,6.53
2018-02-03T06:15:15.192Z,7.70
2018-02-03T06:17:41.335Z,9.30
2018-02-03T06:20:07.614Z,7.27
2018-02-03T06:22:33.798Z,7.73
2018-02-03T06:24:59.970Z,7.30
2018-02-03T06:27:26.138Z,8.17
2018-02-03T06:29:52.327Z,7.20
2018-02-03T06:32:18.462Z,7.20
2018-02-03T06:34:44.596Z,7.57
2018-02-03T06:37:10.765Z,7.70
2018-02-03T06:39:36.942Z,7.27
2018-02-03T06:42:04.118Z,7.50
2018-02-03T06:44:30.284Z,8.47
2018-02-03T06:46:56.469Z,7.40
2018-02-03T06:49:22.681Z,7.87
2018-02-03T06:51:48.932Z,7.73
2018-02-03T06:54:15.175Z,9.40
2018-02-03T06:56:41.326Z,7.83
2018-02-03T06:59:07.459Z,7.80
2018-02-03T07:01:33.800Z,8.13
2018-02-03T07:03:59.965Z,8.80
2018-02-03T07:06:26.076Z,7.90
2018-02-03T07:08:52.271Z,9.60
2018-02-03T07:11:18.468Z,10.27
2018-02-03T07:13:44.625Z,10.10
2018-02-03T07:16:10.802Z,9.30
2018-02-03T07:18:37.008Z,9.23
2018-02-03T07:21:03.225Z,10.17
2018-02-03T07:23:29.438Z,9.13
2018-02-03T07:25:55.623Z,10.87
2018-02-03T07:28:21.791Z,10.07
2018-02-03T07:30:55.279Z,11.93
2018-02-03T07:33:21.416Z,10.40
2018-02-03T07:35:47.650Z,10.60
2018-02-03T07:38:13.788Z,11.47
2018-02-03T07:40:39.970Z,11.17
2018-02-03T07:43:06.196Z,11.13
2018-02-03T07:45:32.341Z,10.93
2018-02-03T07:47:58.454Z,10.80
2018-02-03T07:50:24.651Z,11.30
2018-02-03T07:52:50.838Z,11.33
2018-02-03T07:55:16.964Z,12.07
2018-02-03T07:57:43.217Z,11.80
2018-02-03T08:00:09.496Z,12.17
2018-02-03T08:02:35.697Z,13.60
2018-02-03T08:05:01.913Z,12.97
2018-02-03T08:07:28.130Z,14.67
2018-02-03T08:09:54.371Z,15.33
2018-02-03T08:12:20.548Z,14.70
2018-02-03T08:14:46.750Z,14.47
2018-02-03T08:17:13.297Z,14.70
2018-02-03T08:19:39.552Z,13.60
2018-02-03T08:22:05.756Z,14.97
2018-02-03T08:24:31.963Z,13.20
2018-02-03T08:26:58.139Z,12.83
2018-02-03T08:29:24.287Z,13.30
2018-02-03T08:31:50.508Z,13.67
2018-02-03T08:34:16.666Z,13.13
2018-02-03T08:36:42.813Z,12.17
2018-02-03T08:39:09.027Z,12.40
2018-02-03T08:41:35.234Z,13.37
2018-02-03T08:44:01.514Z,14.70
2018-02-03T08:46:27.702Z,12.40
2018-02-03T08:48:53.920Z,13.90
2018-02-03T08:51:20.104Z,13.37
2018-02-03T08:53:46.340Z,13.50
2018-02-03T08:56:12.460Z,13.60
2018-02-03T08:58:38.870Z,12.20
2018-02-03T09:01:05.014Z,13.57
2018-02-03T09:03:31.132Z,14.50
2018-02-03T09:05:58.224Z,14.03
2018-02-03T09:08:24.840Z,13.53
2018-02-03T09:10:51.033Z,13.87
2018-02-03T09:13:27.155Z,14.43
2018-02-03T09:15:53.296Z,13.10
2018-02-03T09:18:19.760Z,12.47
2018-02-03T09:20:45.919Z,14.23
2018-02-03T09:23:13.128Z,13.97
2018-02-03T09:25:39.290Z,13.87
2018-02-03T09:28:05.413Z,13.70
2018-02-03T09:30:31.588Z,13.03
2018-02-03T09:32:58.495Z,13.40
2018-02-03T09:35:25.081Z,13.17
2018-02-03T09:37:51.178Z,12.70
2018-02-03T09:40:17.347Z,12.53
2018-02-03T09:42:43.471Z,13.17
2018-02-03T09:45:09.595Z,14.53
2018-02-03T09:47:35.759Z,13.33
2018-02-03T09:50:01.945Z,14.23
2018-02-03T09:52:28.077Z,14.00
2018-02-03T09:54:55.230Z,13.33
2018-02-03T09:57:22.350Z,15.67
2018-02-03T09:59:48.554Z,15.80
2018-02-03T10:02:14.755Z,14.60
2018-02-03T10:04:40.928Z,14.03
2018-02-03T10:07:07.094Z,14.40
2018-02-03T10:09:33.266Z,13.40
2018-02-03T10:11:59.473Z,15.63
2018-02-03T10:14:25.663Z,14.47
2018-02-03T10:16:51.935Z,14.23
2018-02-03T10:19:18.159Z,14.97
2018-02-03T10:21:44.419Z,14.87
2018-02-03T10:24:10.713Z,14.97
2018-02-03T10:26:36.934Z,14.23
2018-02-03T10:29:03.085Z,15.33
2018-02-03T10:31:29.369Z,14.20
2018-02-03T10:33:55.578Z,15.90
2018-02-03T10:36:22.658Z,14.93
2018-02-03T10:38:48.888Z,14.00
2018-02-03T10:41:15.328Z,12.73
2018-02-03T10:43:41.480Z,14.93
2018-02-03T10:46:07.660Z,13.50
2018-02-03T10:48:33.857Z,14.93
2018-02-03T10:51:00.127Z,14.87
2018-02-03T10:53:26.323Z,14.20
2018-02-03T10:55:52.530Z,15.73
2018-02-03T10:58:19.331Z,14.47
2018-02-03T11:00:45.618Z,14.30
2018-02-03T11:03:11.779Z,14.20
2018-02-03T11:05:37.944Z,15.20
2018-02-03T11:08:04.180Z,14.80
2018-02-03T11:10:30.592Z,13.73
2018-02-03T11:12:56.737Z,13.60
2018-02-03T11:15:22.912Z,13.73
2018-02-03T11:17:49.121Z,13.47
2018-02-03T11:20:15.314Z,14.93
2018-02-03T11:22:41.532Z,14.10
2018-02-03T11:25:07.729Z,14.60
2018-02-03T11:27:33.925Z,13.93
2018-02-03T11:30:00.096Z,14.23
2018-02-03T11:32:26.360Z,14.30
2018-02-03T11:34:52.578Z,13.23
2018-02-03T11:37:18.780Z,13.07
2018-02-03T11:39:45.036Z,12.33
2018-02-03T11:42:11.296Z,11.97
2018-02-03T11:44:37.475Z,12.07
2018-02-03T11:47:03.750Z,15.87
2018-02-03T11:49:29.920Z,12.07
2018-02-03T11:51:56.859Z,12.00
2018-02-03T11:54:23.060Z,11.00
2018-02-03T11:56:49.241Z,10.80
2018-02-03T11:59:16.142Z,12.17
2018-02-03T12:01:43.066Z,12.73
2018-02-03T12:04:09.343Z,10.40
2018-02-03T12:06:35.432Z,9.97
2018-02-03T12:09:01.551Z,7.63
2018-02-03T12:11:27.701Z,7.93
2018-02-03T12:13:53.801Z,8.40
2018-02-03T12:16:20.089Z,5.63
2018-02-03T12:18:46.214Z,3.73
2018-02-03T12:21:12.372Z,4.20
2018-02-03T12:23:38.522Z,4.67
2018-02-03T12:26:04.669Z,2.60
2018-02-03T12:28:31.036Z,2.90
2018-02-03T12:30:57.268Z,3.13
2018-02-03T12:33:23.543Z,4.53
2018-02-03T12:35:49.732Z,2.37
2018-02-03T12:38:15.921Z,3.80
2018-02-03T12:40:42.145Z,2.43
2018-02-03T12:43:08.449Z,3.17
2018-02-03T12:45:34.628Z,3.47
2018-02-03T12:48:00.856Z,2.67
2018-02-03T12:50:27.057Z,2.03
2018-02-03T12:52:54.199Z,2.30
2018-02-03T12:55:20.362Z,2.83
2018-02-03T12:57:46.597Z,3.07
2018-02-03T13:00:12.824Z,3.90
2018-02-03T13:02:39.087Z,2.83
2018-02-03T13:05:06.168Z,3.23
2018-02-03T13:07:32.350Z,3.77
2018-02-03T13:09:58.521Z,3.10
2018-02-03T13:12:24.757Z,4.60
2018-02-03T13:14:50.971Z,4.43
2018-02-03T13:17:17.144Z,3.30
2018-02-03T13:19:43.351Z,4.40
2018-02-03T13:22:09.635Z,3.73
2018-02-03T13:24:35.887Z,4.90
2018-02-03T13:27:02.085Z,4.40
2018-02-03T13:29:28.298Z,4.23
2018-02-03T13:31:54.502Z,4.17
2018-02-03T13:34:20.680Z,4.30
2018-02-03T13:36:46.904Z,5.17
2018-02-03T13:39:13.063Z,4.90
2018-02-03T13:41:39.258Z,6.30
2018-02-03T13:44:05.511Z,4.50
2018-02-03T13:46:31.710Z,3.33
2018-02-03T13:48:57.869Z,5.03
2018-02-03T13:51:31.003Z,4.63
2018-02-03T13:53:57.245Z,4.20
2018-02-03T13:56:23.428Z,3.80
2018-02-03T13:58:49.606Z,4.53
2018-02-03T14:01:15.898Z,3.73
2018-02-03T14:03:42.058Z,4.90
2018-02-03T14:06:08.227Z,7.33
2018-02-03T14:08:34.418Z,8.60
2018-02-03T14:11:00.588Z,2.97
2018-02-03T14:13:26.772Z,2.87
2018-02-03T14:15:52.950Z,2.93
2018-02-03T14:18:19.147Z,6.40
2018-02-03T14:20:45.313Z,4.00
2018-02-03T14:23:11.562Z,4.77
2018-02-03T14:25:37.801Z,6.00
2018-02-03T14:28:04.022Z,9.00
2018-02-03T14:30:30.239Z,4.60
2018-02-03T14:32:56.456Z,3.83
2018-02-03T14:35:22.670Z,4.90
2018-02-03T14:37:48.829Z,5.03
2018-02-03T14:40:15.067Z,4.60
2018-02-03T14:42:41.279Z,6.17
2018-02-03T14:45:07.444Z,4.60
2018-02-03T14:47:33.724Z,5.43
2018-02-03T14:49:59.899Z,5.20
2018-02-03T14:52:26.109Z,5.20
2018-02-03T14:54:52.327Z,7.50
2018-02-03T14:57:18.549Z,4.87
2018-02-03T14:59:44.710Z,5.57
2018-02-03T15:02:10.919Z,5.40
2018-02-03T15:04:37.159Z,12.40
2018-02-03T15:07:03.381Z,12.33
2018-02-03T15:09:30.574Z,12.40
2018-02-03T15:11:56.791Z,7.27
2018-02-03T15:14:23.069Z,13.30
2018-02-03T15:16:49.336Z,7.37
2018-02-03T15:19:15.462Z,7.83
2018-02-03T15:21:41.848Z,5.40
2018-02-03T15:24:08.148Z,7.30
2018-02-03T15:26:34.386Z,9.87
2018-02-03T15:29:00.577Z,9.70
2018-02-03T15:31:26.774Z,14.10
2018-02-03T15:33:52.995Z,8.93
2018-02-03T15:36:19.123Z,10.30
2018-02-03T15:38:45.259Z,8.93
2018-02-03T15:41:11.460Z,9.57
2018-02-03T15:43:37.713Z,8.00
2018-02-03T15:46:03.875Z,8.63
2018-02-03T15:48:30.088Z,8.23
2018-02-03T15:50:56.295Z,9.23
2018-02-03T15:53:22.521Z,10.23
2018-02-03T15:55:48.730Z,10.57
2018-02-03T15:58:14.869Z,10.13
2018-02-03T16:00:41.093Z,10.57
2018-02-03T16:03:07.305Z,12.07
2018-02-03T16:05:33.466Z,10.77
2018-02-03T16:07:59.664Z,18.37
2018-02-03T16:10:25.820Z,15.03
2018-02-03T16:12:52.044Z,12.10
2018-02-03T16:15:18.262Z,13.60
2018-02-03T16:17:44.455Z,13.27
2018-02-03T16:20:10.644Z,11.27
2018-02-03T16:22:36.907Z,14.63
2018-02-03T16:25:03.143Z,20.00
2018-02-03T16:27:29.361Z,13.60
2018-02-03T16:29:55.512Z,13.00
2018-02-03T16:32:21.664Z,13.27
2018-02-03T16:34:47.810Z,18.23
2018-02-03T16:37:13.904Z,24.67
2018-02-03T16:39:40.008Z,23.17
2018-02-03T16:42:06.170Z,20.40
2018-02-03T16:44:32.286Z,19.70
2018-02-03T16:46:58.367Z,20.93
2018-02-03T16:49:24.608Z,16.50
2018-02-03T16:51:50.719Z,15.83
2018-02-03T16:54:16.886Z,17.70
2018-02-03T16:56:43.003Z,20.27
2018-02-03T16:59:09.126Z,17.13
2018-02-03T17:01:35.263Z,16.07
2018-02-03T17:04:01.495Z,18.53
2018-02-03T17:06:27.988Z,20.67
2018-02-03T17:08:54.217Z,16.60
2018-02-03T17:11:20.484Z,16.53
2018-02-03T17:13:46.697Z,17.20
2018-02-03T17:16:12.979Z,15.40
2018-02-03T17:18:39.181Z,48.00
2018-02-03T17:21:05.331Z,33.80
2018-02-03T17:23:31.579Z,20.37
2018-02-03T17:25:57.879Z,16.80
2018-02-03T17:28:24.037Z,14.63
2018-02-03T17:30:50.213Z,13.20
2018-02-03T17:33:16.461Z,13.33
2018-02-03T17:35:42.666Z,13.67
2018-02-03T17:38:14.890Z,16.13
2018-02-03T17:40:41.076Z,20.07
2018-02-03T17:43:07.298Z,15.63
2018-02-03T17:45:39.499Z,16.00
2018-02-03T17:48:05.880Z,15.57
2018-02-03T17:50:32.094Z,14.57
2018-02-03T17:52:59.310Z,15.67
2018-02-03T17:55:31.783Z,14.27
2018-02-03T17:57:57.911Z,15.23
2018-02-03T18:00:24.120Z,19.77
2018-02-03T18:02:50.307Z,25.10
2018-02-03T18:05:16.455Z,29.57
2018-02-03T18:07:42.682Z,27.30
2018-02-03T18:10:08.940Z,18.60
2018-02-03T18:12:35.179Z,20.73
2018-02-03T18:15:01.317Z,19.23
2018-02-03T18:17:27.954Z,19.47
2018-02-03T18:19:54.328Z,17.17
2018-02-03T18:22:20.593Z,16.80
2018-02-03T18:24:47.081Z,17.23
2018-02-03T18:27:13.313Z,16.60
2018-02-03T18:29:39.606Z,24.00
2018-02-03T18:32:05.866Z,22.33
2018-02-03T18:34:32.155Z,24.90
2018-02-03T18:36:58.322Z,18.97
2018-02-03T18:39:24.671Z,24.73
2018-02-03T18:41:50.910Z,20.10
2018-02-03T18:44:17.182Z,18.57
2018-02-03T18:46:43.423Z,21.17
2018-02-03T18:49:09.707Z,24.47
2018-02-03T18:51:35.956Z,22.33
2018-02-03T18:54:02.179Z,20.83
2018-02-03T18:56:28.364Z,21.97
2018-02-03T18:58:54.568Z,20.83
2018-02-03T19:01:20.924Z,24.30
2018-02-03T19:03:47.191Z,21.97
2018-02-03T19:06:13.504Z,22.80
2018-02-03T19:08:39.725Z,23.37
2018-02-03T19:11:05.983Z,21.67
2018-02-03T19:13:32.229Z,23.53
2018-02-03T19:15:58.790Z,27.30
2018-02-03T19:18:25.050Z,26.77
2018-02-03T19:20:51.269Z,30.33
2018-02-03T19:23:18.663Z,29.03
2018-02-03T19:25:44.805Z,26.57
2018-02-03T19:28:10.951Z,26.73
2018-02-03T19:30:38.227Z,24.73
2018-02-03T19:33:04.422Z,26.37
2018-02-03T19:35:30.671Z,24.73
2018-02-03T19:37:56.998Z,25.83
2018-02-03T19:40:23.247Z,33.37
2018-02-03T19:42:49.483Z,40.93
2018-02-03T19:45:16.421Z,30.20
2018-02-03T19:47:42.634Z,29.80
2018-02-03T19:50:08.821Z,25.63
2018-02-03T19:52:35.075Z,29.37
2018-02-03T19:55:01.293Z,30.83
2018-02-03T19:57:27.546Z,31.73
2018-02-03T19:59:53.888Z,33.27
2018-02-03T20:02:20.142Z,31.27
2018-02-03T20:04:46.297Z,26.83
2018-02-03T20:07:12.541Z,27.10
2018-02-03T20:09:38.790Z,24.97
2018-02-03T20:12:05.091Z,26.17
2018-02-03T20:14:31.336Z,24.90
2018-02-03T20:16:57.461Z,23.63
2018-02-03T20:19:23.747Z,24.23
2018-02-03T20:21:49.957Z,23.90
2018-02-03T20:24:16.244Z,22.00
2018-02-03T20:26:42.436Z,22.77
2018-02-03T20:29:08.639Z,23.50
2018-02-03T20:31:34.938Z,20.93
2018-02-03T20:34:01.063Z,20.97
2018-02-03T20:36:27.984Z,21.83
2018-02-03T20:38:54.154Z,20.67
2018-02-03T20:41:20.418Z,26.50
2018-02-03T20:43:46.624Z,27.90
2018-02-03T20:46:12.750Z,29.50
2018-02-03T20:48:38.891Z,27.40
2018-02-03T20:51:05.078Z,25.77
2018-02-03T20:53:31.317Z,23.83
2018-02-03T20:55:57.611Z,21.30
2018-02-03T20:58:23.803Z,23.60
2018-02-03T21:00:50.016Z,19.73
2018-02-03T21:03:16.207Z,24.33
2018-02-03T21:05:42.312Z,27.03
2018-02-03T21:08:08.454Z,23.27
2018-02-03T21:10:34.572Z,24.23
2018-02-03T21:13:00.814Z,25.37
2018-02-03T21:15:26.945Z,24.23
2018-02-03T21:17:53.099Z,26.43
2018-02-03T21:20:19.987Z,28.23
2018-02-03T21:22:46.207Z,27.33
2018-02-03T21:25:12.324Z,29.50
2018-02-03T21:27:38.529Z,25.63
2018-02-03T21:30:04.764Z,27.63
2018-02-03T21:32:30.991Z,26.57
2018-02-03T21:34:57.208Z,31.37
2018-02-03T21:37:23.309Z,31.63
2018-02-03T21:39:49.538Z,27.70
2018-02-03T21:42:16.759Z,30.13
2018-02-03T21:44:43.014Z,28.87
2018-02-03T21:47:09.151Z,29.63
2018-02-03T21:49:35.303Z,27.43
2018-02-03T21:52:02.120Z,39.80
2018-02-03T21:54:28.304Z,25.87
2018-02-03T21:56:54.463Z,28.37
2018-02-03T21:59:20.598Z,25.63
2018-02-03T22:01:46.842Z,28.00
2018-02-03T22:04:13.105Z,25.17
2018-02-03T22:06:39.229Z,27.67
2018-02-03T22:09:05.369Z,32.27
2018-02-03T22:11:31.528Z,28.27
2018-02-03T22:13:57.828Z,32.60
2018-02-03T22:16:24.140Z,34.33
2018-02-03T22:18:50.314Z,40.60
2018-02-03T22:21:16.490Z,35.23
2018-02-03T22:23:42.709Z,35.57
2018-02-03T22:26:08.892Z,36.83
2018-02-03T22:28:35.060Z,37.13
2018-02-03T22:31:01.181Z,39.37
2018-02-03T22:33:27.341Z,45.90
2018-02-03T22:35:53.631Z,53.10
2018-02-03T22:38:19.794Z,60.97
2018-02-03T22:40:45.907Z,45.73
2018-02-03T22:43:12.045Z,43.73
2018-02-03T22:45:38.166Z,53.13
2018-02-03T22:48:04.319Z,49.17
2018-02-03T22:50:30.509Z,39.00
2018-02-03T22:52:57.771Z,43.70
2018-02-03T22:55:23.882Z,64.13
2018-02-03T22:57:50.050Z,45.93
2018-02-03T23:00:16.168Z,37.37
2018-02-03T23:02:58.185Z,30.83
2018-02-03T23:05:24.333Z,43.30
2018-02-03T23:07:50.457Z,50.40
2018-02-03T23:10:16.675Z,47.63
2018-02-03T23:12:42.848Z,41.23
2018-02-03T23:15:08.985Z,39.67
2018-02-03T23:17:42.570Z,36.87
2018-02-03T23:20:08.791Z,31.80
2018-02-03T23:22:34.967Z,30.53
2018-02-03T23:25:01.410Z,31.03
2018-02-03T23:27:29.296Z,28.83
2018-02-03T23:29:56.207Z,27.73
2018-02-03T23:32:22.384Z,28.80
2018-02-03T23:34:49.316Z,30.30
2018-02-03T23:37:15.473Z,32.30
2018-02-03T23:39:41.562Z,37.87
2018-02-03T23:42:07.843Z,34.60
2018-02-03T23:44:34.472Z,34.43
2018-02-03T23:47:00.622Z,31.83
2018-02-03T23:49:30.251Z,35.77
2018-02-03T23:51:56.442Z,31.53
2018-02-03T23:54:22.762Z,29.77
2018-02-03T23:56:49.043Z,32.43
2018-02-03T23:59:15.222Z,29.37
